createdAt,value
2023-05-12T00:00:25.644Z,25.4615
2023-05-12T00:01:26.699Z,27.7692
2023-05-12T00:02:28.432Z,18.2308
2023-05-12T00:03:30.589Z,23.6154
2023-05-12T00:04:31.727Z,19.0000
2023-05-12T00:05:33.269Z,23.3077
2023-05-12T00:06:34.935Z,20.3077
2023-05-12T00:07:36.614Z,22.3846
2023-05-12T00:08:38.237Z,22.9231
2023-05-12T00:09:39.888Z,23.6154
2023-05-12T00:10:41.494Z,22.3846
2023-05-12T00:11:43.163Z,21.2308
2023-05-12T00:12:44.790Z,22.6923
2023-05-12T00:13:46.684Z,22.2308
2023-05-12T00:14:48.238Z,20.3077
2023-05-12T00:15:49.873Z,21.0769
2023-05-12T00:16:51.734Z,21.0769
2023-05-12T00:17:53.274Z,22.6923
2023-05-12T00:18:54.855Z,25.6923
2023-05-12T00:19:56.915Z,21.5385
2023-05-12T00:20:58.983Z,17.4615
2023-05-12T00:21:59.748Z,16.7692
2023-05-12T00:23:01.343Z,16.4615
2023-05-12T00:24:03.094Z,21.9231
2023-05-12T00:25:04.702Z,20.7692
2023-05-12T00:26:06.311Z,18.6154
2023-05-12T00:27:07.905Z,18.1538
2023-05-12T00:28:09.698Z,16.9231
2023-05-12T00:29:11.318Z,15.7692
2023-05-12T00:30:12.939Z,17.0000
2023-05-12T00:31:14.551Z,17.0769
2023-05-12T00:32:16.199Z,17.0000
2023-05-12T00:33:17.835Z,17.7692
2023-05-12T00:34:19.593Z,17.3846
2023-05-12T00:35:21.086Z,20.0000
2023-05-12T00:36:22.806Z,16.0769
2023-05-12T00:37:24.406Z,20.6154
2023-05-12T00:38:26.057Z,16.0000
2023-05-12T00:39:27.796Z,14.1538
2023-05-12T00:40:29.398Z,17.9231
2023-05-12T00:41:30.999Z,14.4615
2023-05-12T00:42:32.725Z,18.0769
2023-05-12T00:43:34.329Z,18.6154
2023-05-12T00:44:36.000Z,16.2308
2023-05-12T00:45:37.718Z,17.5385
2023-05-12T00:46:39.240Z,19.1538
2023-05-12T00:47:40.917Z,17.6154
2023-05-12T00:48:42.570Z,16.6154
2023-05-12T00:49:44.284Z,16.3846
2023-05-12T00:50:45.901Z,15.5385
2023-05-12T00:51:47.513Z,16.5385
2023-05-12T00:52:49.189Z,15.8462
2023-05-12T00:53:50.933Z,17.2308
2023-05-12T00:54:52.606Z,18.8462
2023-05-12T00:55:54.161Z,18.6154
2023-05-12T00:56:55.930Z,18.8462
2023-05-12T00:57:57.482Z,17.0000
2023-05-12T00:58:59.133Z,17.5385
2023-05-12T01:00:00.862Z,20.0000
2023-05-12T01:01:02.468Z,18.7692
2023-05-12T01:02:04.061Z,18.6154
2023-05-12T01:03:05.923Z,22.8462
2023-05-12T01:04:07.372Z,23.0769
2023-05-12T01:05:09.088Z,16.7692
2023-05-12T01:06:10.641Z,20.8462
2023-05-12T01:07:12.336Z,22.0769
2023-05-12T01:08:13.925Z,18.5385
2023-05-12T01:09:15.622Z,22.6923
2023-05-12T01:10:17.373Z,17.7692
2023-05-12T01:11:18.897Z,23.4615
2023-05-12T01:12:20.505Z,19.6923
2023-05-12T01:13:22.218Z,20.5385
2023-05-12T01:14:23.938Z,22.3846
2023-05-12T01:15:25.645Z,18.3846
2023-05-12T01:16:27.123Z,19.5385
2023-05-12T01:17:28.897Z,21.3077
2023-05-12T01:18:30.566Z,17.7692
2023-05-12T01:19:32.172Z,19.8462
2023-05-12T01:20:33.730Z,24.8462
2023-05-12T01:21:35.482Z,20.8462
2023-05-12T01:22:37.909Z,18.7692
2023-05-12T01:23:38.712Z,21.4615
2023-05-12T01:24:40.399Z,18.6923
2023-05-12T01:25:42.049Z,19.0000
2023-05-12T01:26:43.675Z,19.0769
2023-05-12T01:27:45.396Z,21.3846
2023-05-12T01:28:46.960Z,23.5385
2023-05-12T01:29:48.665Z,17.3846
2023-05-12T01:30:50.366Z,19.3077
2023-05-12T01:31:51.902Z,18.3846
2023-05-12T01:32:53.571Z,20.4615
2023-05-12T01:33:55.189Z,20.6154
2023-05-12T01:34:56.854Z,17.5385
2023-05-12T01:35:58.562Z,18.0769
2023-05-12T01:37:00.164Z,20.6154
2023-05-12T01:38:02.138Z,18.1538
2023-05-12T01:39:03.455Z,20.4615
2023-05-12T01:40:05.071Z,19.3846
2023-05-12T01:41:06.788Z,19.0000
2023-05-12T01:42:08.444Z,15.3846
2023-05-12T01:43:10.070Z,20.0000
2023-05-12T01:44:11.699Z,18.3846
2023-05-12T01:45:13.358Z,18.0769
2023-05-12T01:46:15.503Z,17.9231
2023-05-12T01:47:16.713Z,19.4615
2023-05-12T01:48:18.272Z,17.5385
2023-05-12T01:49:19.950Z,20.6923
2023-05-12T01:50:21.800Z,20.9231
2023-05-12T01:51:23.346Z,19.5385
2023-05-12T01:52:24.907Z,17.6923
2023-05-12T01:53:26.615Z,20.0000
2023-05-12T01:54:28.184Z,16.9231
2023-05-12T01:55:29.846Z,16.6154
2023-05-12T01:56:32.480Z,17.4615
2023-05-12T01:57:33.130Z,17.0000
2023-05-12T01:58:34.804Z,17.5385
2023-05-12T01:59:36.398Z,20.6154
2023-05-12T02:00:38.172Z,15.9231
2023-05-12T02:01:39.750Z,21.8462
2023-05-12T02:02:43.071Z,15.0769
2023-05-12T02:03:43.166Z,18.3077
2023-05-12T02:04:44.750Z,23.7692
2023-05-12T02:05:46.275Z,16.6154
2023-05-12T02:06:47.996Z,17.2308
2023-05-12T02:07:49.627Z,18.1538
2023-05-12T02:08:51.967Z,19.0769
2023-05-12T02:09:52.859Z,19.1538
2023-05-12T02:10:54.553Z,18.0000
2023-05-12T02:11:56.282Z,19.0000
2023-05-12T02:12:57.912Z,18.4615
2023-05-12T02:13:59.462Z,15.8462
2023-05-12T02:15:01.231Z,21.8462
2023-05-12T02:16:02.898Z,19.9231
2023-05-12T02:17:04.548Z,16.0769
2023-05-12T02:18:06.175Z,17.3077
2023-05-12T02:19:07.805Z,18.9231
2023-05-12T02:20:09.397Z,18.6923
2023-05-12T02:21:11.037Z,16.2308
2023-05-12T02:22:12.689Z,19.5385
2023-05-12T02:23:14.347Z,19.9231
2023-05-12T02:24:15.918Z,18.7692
2023-05-12T02:25:17.606Z,21.6154
2023-05-12T02:26:19.194Z,19.5385
2023-05-12T02:27:20.938Z,25.5385
2023-05-12T02:28:22.567Z,20.6154
2023-05-12T02:29:24.239Z,21.7692
2023-05-12T02:30:25.823Z,25.3077
2023-05-12T02:31:27.605Z,25.0769
2023-05-12T02:32:29.505Z,21.0769
2023-05-12T02:33:30.819Z,21.0000
2023-05-12T02:34:32.475Z,20.4615
2023-05-12T02:35:34.096Z,22.5385
2023-05-12T02:36:35.727Z,23.2308
2023-05-12T02:37:37.505Z,20.6923
2023-05-12T02:38:39.001Z,23.3846
2023-05-12T02:39:40.680Z,24.6154
2023-05-12T02:40:42.324Z,27.2308
2023-05-12T02:41:44.955Z,20.8462
2023-05-12T02:42:45.588Z,24.4615
2023-05-12T02:43:47.206Z,16.6154
2023-05-12T02:44:48.855Z,21.0769
2023-05-12T02:45:50.642Z,21.6154
2023-05-12T02:46:52.120Z,28.3846
2023-05-12T02:47:53.926Z,23.4615
2023-05-12T02:48:55.479Z,22.7692
2023-05-12T02:49:57.104Z,20.2308
2023-05-12T02:50:58.720Z,22.7692
2023-05-12T02:52:00.418Z,19.7692
2023-05-12T02:53:02.085Z,20.7692
2023-05-12T02:54:03.674Z,17.8462
2023-05-12T02:55:05.359Z,26.0769
2023-05-12T02:56:06.992Z,32.2308
2023-05-12T02:57:08.639Z,34.0000
2023-05-12T02:58:10.307Z,37.6154
2023-05-12T02:59:11.945Z,41.3077
2023-05-12T03:00:13.580Z,44.5385
2023-05-12T03:01:15.212Z,41.4615
2023-05-12T03:02:16.892Z,39.7692
2023-05-12T03:03:18.553Z,42.0000
2023-05-12T03:04:20.142Z,47.3846
2023-05-12T03:05:21.803Z,42.3077
2023-05-12T03:06:23.460Z,45.7692
2023-05-12T03:07:25.146Z,44.0000
2023-05-12T03:08:26.818Z,42.7692
2023-05-12T03:09:28.370Z,43.6923
2023-05-12T03:10:30.051Z,44.0000
2023-05-12T03:11:31.652Z,43.4615
2023-05-12T03:12:33.288Z,44.9231
2023-05-12T03:13:35.440Z,46.0000
2023-05-12T03:14:36.657Z,47.4615
2023-05-12T03:15:38.237Z,45.6154
2023-05-12T03:16:40.553Z,45.0000
2023-05-12T03:17:41.581Z,44.5385
2023-05-12T03:18:43.229Z,47.1538
2023-05-12T03:19:44.802Z,47.7692
2023-05-12T03:20:46.518Z,47.9231
2023-05-12T03:21:48.084Z,43.2308
2023-05-12T03:22:49.770Z,44.3077
2023-05-12T03:23:51.452Z,47.6154
2023-05-12T03:24:53.072Z,48.2308
2023-05-12T03:25:54.668Z,44.9231
2023-05-12T03:26:56.320Z,48.9231
2023-05-12T03:27:57.972Z,46.9231
2023-05-12T03:28:59.674Z,45.9231
2023-05-12T03:30:01.252Z,48.3077
2023-05-12T03:31:03.117Z,46.0000
2023-05-12T03:32:04.585Z,51.8462
2023-05-12T03:33:06.253Z,50.0000
2023-05-12T03:34:07.915Z,49.4615
2023-05-12T03:35:09.633Z,50.0769
2023-05-12T03:36:11.139Z,47.2308
2023-05-12T03:37:12.859Z,51.0769
2023-05-12T03:38:14.440Z,49.2308
2023-05-12T03:39:16.191Z,46.0769
2023-05-12T03:40:18.975Z,46.9231
2023-05-12T03:41:19.407Z,54.0000
2023-05-12T03:42:21.048Z,47.6923
2023-05-12T03:43:22.761Z,46.6923
2023-05-12T03:44:24.363Z,50.4615
2023-05-12T03:45:26.062Z,49.6154
2023-05-12T03:46:27.661Z,51.3846
2023-05-12T03:47:29.463Z,52.3077
2023-05-12T03:48:30.971Z,49.4615
2023-05-12T03:49:32.567Z,46.9231
2023-05-12T03:50:34.258Z,49.1538
2023-05-12T03:51:35.978Z,48.9231
2023-05-12T03:52:37.513Z,48.3077
2023-05-12T03:53:39.188Z,47.6923
2023-05-12T03:54:40.809Z,49.3846
2023-05-12T03:55:42.965Z,49.2308
2023-05-12T03:56:44.133Z,42.0000
2023-05-12T03:57:45.744Z,45.9231
2023-05-12T03:58:47.436Z,49.1538
2023-05-12T03:59:49.102Z,48.6923
2023-05-12T04:00:50.732Z,49.1538
2023-05-12T04:01:52.392Z,48.6154
2023-05-12T04:02:54.038Z,48.5385
2023-05-12T04:03:55.729Z,51.2308
2023-05-12T04:04:57.281Z,50.6923
2023-05-12T04:05:58.967Z,48.5385
2023-05-12T04:07:00.650Z,49.4615
2023-05-12T04:08:02.228Z,46.9231
2023-05-12T04:09:03.896Z,49.0769
2023-05-12T04:10:05.540Z,49.0769
2023-05-12T04:11:07.481Z,50.3846
2023-05-12T04:12:08.793Z,48.3846
2023-05-12T04:13:10.460Z,51.0000
2023-05-12T04:14:12.083Z,50.3846
2023-05-12T04:15:13.799Z,50.1538
2023-05-12T04:16:15.524Z,51.6923
2023-05-12T04:17:17.041Z,53.4615
2023-05-12T04:18:18.697Z,49.3846
2023-05-12T04:19:20.329Z,50.6154
2023-05-12T04:20:22.121Z,52.4615
2023-05-12T04:21:24.494Z,51.7692
2023-05-12T04:22:25.817Z,52.1538
2023-05-12T04:23:26.945Z,54.0769
2023-05-12T04:24:28.648Z,55.4615
2023-05-12T04:25:30.234Z,54.4615
2023-05-12T04:26:31.872Z,52.2308
2023-05-12T04:27:33.526Z,53.9231
2023-05-12T04:28:35.176Z,52.0000
2023-05-12T04:29:36.825Z,56.4615
2023-05-12T04:30:38.470Z,53.2308
2023-05-12T04:31:40.177Z,55.8462
2023-05-12T04:32:41.789Z,56.8462
2023-05-12T04:33:43.464Z,55.9231
2023-05-12T04:34:45.951Z,55.6923
2023-05-12T04:35:47.453Z,57.7692
2023-05-12T04:36:48.389Z,55.8462
2023-05-12T04:37:50.973Z,52.8462
2023-05-12T04:38:51.699Z,53.3077
2023-05-12T04:39:53.280Z,54.6154
2023-05-12T04:40:54.914Z,56.7692
2023-05-12T04:41:56.666Z,59.0769
2023-05-12T04:42:58.232Z,57.3077
2023-05-12T04:44:00.380Z,56.0769
2023-05-12T04:45:01.505Z,56.7692
2023-05-12T04:46:03.222Z,58.6923
2023-05-12T04:47:04.875Z,61.2308
2023-05-12T04:48:07.501Z,61.4615
2023-05-12T04:49:09.095Z,55.6923
2023-05-12T04:50:09.950Z,57.0769
2023-05-12T04:51:11.604Z,56.6154
2023-05-12T04:52:13.228Z,56.3846
2023-05-12T04:53:14.828Z,67.4615
2023-05-12T04:54:16.495Z,66.0769
2023-05-12T04:55:18.429Z,64.8462
2023-05-12T04:56:19.883Z,69.0000
2023-05-12T04:57:21.653Z,69.1538
2023-05-12T04:58:23.141Z,70.0769
2023-05-12T04:59:24.731Z,77.7692
2023-05-12T05:00:26.516Z,79.3846
2023-05-12T05:01:28.106Z,74.2308
2023-05-12T05:02:30.270Z,68.4615
2023-05-12T05:03:31.492Z,76.3846
2023-05-12T05:04:33.047Z,78.1538
2023-05-12T05:05:34.658Z,87.1538
2023-05-12T05:06:36.306Z,86.8462
2023-05-12T05:07:38.947Z,85.1538
2023-05-12T05:08:40.443Z,81.7692
2023-05-12T05:09:41.291Z,78.1538
2023-05-12T05:10:42.868Z,88.7692
2023-05-12T05:11:44.586Z,93.4615
2023-05-12T05:12:46.171Z,91.6923
2023-05-12T05:13:47.841Z,86.6923
2023-05-12T05:14:50.425Z,87.6154
2023-05-12T05:15:51.295Z,92.3846
2023-05-12T05:16:52.750Z,95.6154
2023-05-12T05:17:54.647Z,96.9231
2023-05-12T05:18:57.614Z,97.0769
2023-05-12T05:19:59.226Z,96.8462
2023-05-12T05:20:59.522Z,97.1538
2023-05-12T05:22:01.021Z,97.2308
2023-05-12T05:23:02.724Z,106.0769
2023-05-12T05:24:04.346Z,98.8462
2023-05-12T05:25:05.930Z,98.0000
2023-05-12T05:26:07.667Z,95.4615
2023-05-12T05:27:09.230Z,101.6923
2023-05-12T05:28:10.966Z,99.2308
2023-05-12T05:29:12.548Z,105.0000
2023-05-12T05:30:14.256Z,103.6923
2023-05-12T05:31:15.866Z,99.8462
2023-05-12T05:32:17.499Z,99.6154
2023-05-12T05:33:19.250Z,104.9231
2023-05-12T05:34:20.812Z,109.7692
2023-05-12T05:35:22.635Z,108.6154
2023-05-12T05:36:24.046Z,113.6154
2023-05-12T05:37:25.717Z,103.6154
2023-05-12T05:38:28.225Z,107.7692
2023-05-12T05:39:28.958Z,112.0769
2023-05-12T05:40:38.536Z,112.3077
2023-05-12T05:41:32.471Z,114.2308
2023-05-12T05:42:34.058Z,107.9231
2023-05-12T05:43:35.623Z,104.6923
2023-05-12T05:44:37.182Z,114.3077
2023-05-12T05:45:38.888Z,115.8462
2023-05-12T05:46:40.547Z,116.8462
2023-05-12T05:47:42.220Z,118.3846
2023-05-12T05:48:43.859Z,113.1538
2023-05-12T05:49:45.468Z,112.0000
2023-05-12T05:50:47.089Z,120.0000
2023-05-12T05:51:48.751Z,120.0769
2023-05-12T05:52:50.404Z,117.0769
2023-05-12T05:53:52.107Z,122.3846
2023-05-12T05:54:53.714Z,115.7692
2023-05-12T05:55:55.694Z,118.3077
2023-05-12T05:56:57.264Z,124.4615
2023-05-12T05:57:58.710Z,122.2308
2023-05-12T05:59:00.272Z,121.8462
2023-05-12T06:00:01.999Z,117.4615
2023-05-12T06:01:04.091Z,118.7692
2023-05-12T06:02:05.294Z,122.9231
2023-05-12T06:03:06.991Z,129.6923
2023-05-12T06:04:09.544Z,130.9231
2023-05-12T06:05:10.146Z,128.3846
2023-05-12T06:06:12.957Z,122.3846
2023-05-12T06:07:13.452Z,123.0000
2023-05-12T06:08:15.035Z,129.3077
2023-05-12T06:09:16.734Z,130.2308
2023-05-12T06:10:18.622Z,131.9231
2023-05-12T06:11:19.983Z,127.6154
2023-05-12T06:12:21.570Z,126.3846
2023-05-12T06:13:23.245Z,132.3077
2023-05-12T06:14:25.100Z,137.7692
2023-05-12T06:15:26.584Z,137.0000
2023-05-12T06:16:28.240Z,138.2308
2023-05-12T06:17:32.066Z,128.8462
2023-05-12T06:18:31.490Z,132.5385
2023-05-12T06:19:33.722Z,133.3846
2023-05-12T06:20:34.769Z,141.3077
2023-05-12T06:21:36.428Z,139.1538
2023-05-12T06:22:38.056Z,137.0000
2023-05-12T06:23:39.774Z,137.2308
2023-05-12T06:24:41.401Z,134.3077
2023-05-12T06:25:43.029Z,140.3077
2023-05-12T06:26:44.675Z,141.9231
2023-05-12T06:27:46.316Z,146.3846
2023-05-12T06:28:47.984Z,139.1538
2023-05-12T06:29:49.604Z,139.1538
2023-05-12T06:30:51.220Z,136.1538
2023-05-12T06:31:52.902Z,138.3077
2023-05-12T06:32:54.519Z,142.1538
2023-05-12T06:33:56.159Z,138.8462
2023-05-12T06:34:57.846Z,138.5385
2023-05-12T06:35:59.543Z,129.8462
2023-05-12T06:37:01.074Z,132.3846
2023-05-12T06:38:02.805Z,139.0000
2023-05-12T06:39:04.418Z,139.7692
2023-05-12T06:40:06.072Z,136.4615
2023-05-12T06:41:08.669Z,127.6154
2023-05-12T06:42:09.385Z,128.0000
2023-05-12T06:43:10.978Z,135.2308
2023-05-12T06:44:12.643Z,138.1538
2023-05-12T06:45:14.287Z,140.0769
2023-05-12T06:46:16.030Z,135.4615
2023-05-12T06:47:17.544Z,132.4615
2023-05-12T06:48:19.172Z,123.6154
2023-05-12T06:49:20.796Z,133.6154
2023-05-12T06:50:22.572Z,137.7692
2023-05-12T06:51:24.135Z,156.7692
2023-05-12T06:52:26.490Z,138.7692
2023-05-12T06:53:27.371Z,126.5385
2023-05-12T06:54:29.144Z,127.2308
2023-05-12T06:55:30.717Z,132.4615
2023-05-12T06:56:32.453Z,134.8462
2023-05-12T06:57:34.047Z,148.0000
2023-05-12T06:58:35.619Z,131.0769
2023-05-12T06:59:37.304Z,122.3077
2023-05-12T07:00:39.669Z,123.9231
2023-05-12T07:01:40.691Z,132.3077
2023-05-12T07:02:42.280Z,131.3846
2023-05-12T07:03:43.855Z,143.7692
2023-05-12T07:04:45.625Z,129.6923
2023-05-12T07:05:47.189Z,122.8462
2023-05-12T07:06:48.912Z,122.5385
2023-05-12T07:07:50.576Z,128.7692
2023-05-12T07:08:52.157Z,127.5385
2023-05-12T07:09:53.738Z,144.8462
2023-05-12T07:10:55.467Z,125.5385
2023-05-12T07:11:57.126Z,123.1538
2023-05-12T07:12:58.722Z,119.8462
2023-05-12T07:14:00.377Z,124.0769
2023-05-12T07:15:02.017Z,127.4615
2023-05-12T07:16:03.626Z,143.1538
2023-05-12T07:17:05.242Z,128.1538
2023-05-12T07:18:06.991Z,119.0000
2023-05-12T07:19:08.672Z,120.1538
2023-05-12T07:20:10.172Z,124.3077
2023-05-12T07:21:11.867Z,131.6154
2023-05-12T07:22:16.179Z,136.0000
2023-05-12T07:23:15.049Z,120.8462
2023-05-12T07:24:16.708Z,114.8462
2023-05-12T07:25:19.150Z,118.3846
2023-05-12T07:26:21.648Z,120.9231
2023-05-12T07:27:21.624Z,126.2308
2023-05-12T07:28:23.276Z,137.5385
2023-05-12T07:29:24.914Z,124.7692
2023-05-12T07:30:26.660Z,116.1538
2023-05-12T07:31:29.197Z,112.4615
2023-05-12T07:32:29.920Z,126.5385
2023-05-12T07:33:32.683Z,129.7692
2023-05-12T07:34:33.208Z,139.7692
2023-05-12T07:35:34.949Z,121.1538
2023-05-12T07:36:36.574Z,113.0769
2023-05-12T07:37:38.356Z,115.6923
2023-05-12T07:38:39.905Z,126.0769
2023-05-12T07:39:41.554Z,121.7692
2023-05-12T07:40:43.140Z,135.9231
2023-05-12T07:41:44.876Z,120.0000
2023-05-12T07:42:46.429Z,114.5385
2023-05-12T07:43:48.276Z,113.3846
2023-05-12T07:44:49.706Z,128.2308
2023-05-12T07:45:51.441Z,130.9231
2023-05-12T07:46:54.100Z,143.3846
2023-05-12T07:47:55.557Z,122.1538
2023-05-12T07:48:56.266Z,112.0000
2023-05-12T07:49:58.693Z,111.6923
2023-05-12T07:50:59.543Z,114.2308
2023-05-12T07:52:01.270Z,125.0000
2023-05-12T07:53:02.856Z,145.9231
2023-05-12T07:54:04.540Z,124.8462
2023-05-12T07:55:06.158Z,114.6154
2023-05-12T07:56:07.861Z,117.3077
2023-05-12T07:57:09.478Z,120.8462
2023-05-12T07:58:11.059Z,125.0000
2023-05-12T07:59:12.754Z,139.4615
2023-05-12T08:00:14.413Z,120.1538
2023-05-12T08:01:16.109Z,112.1538
2023-05-12T08:02:18.202Z,112.2308
2023-05-12T08:03:19.403Z,114.8462
2023-05-12T08:04:21.027Z,120.2308
2023-05-12T08:05:22.701Z,138.9231
2023-05-12T08:06:25.026Z,124.1538
2023-05-12T08:07:26.195Z,112.0769
2023-05-12T08:08:27.516Z,113.5385
2023-05-12T08:09:29.221Z,118.7692
2023-05-12T08:10:30.843Z,122.6923
2023-05-12T08:11:32.475Z,140.4615
2023-05-12T08:12:34.131Z,114.1538
2023-05-12T08:13:35.733Z,111.6154
2023-05-12T08:14:37.335Z,113.8462
2023-05-12T08:15:39.045Z,120.7692
2023-05-12T08:16:40.739Z,122.3077
2023-05-12T08:17:42.359Z,135.4615
2023-05-12T08:18:43.986Z,122.1538
2023-05-12T08:19:45.571Z,110.5385
2023-05-12T08:20:47.249Z,101.9231
2023-05-12T08:21:48.878Z,114.5385
2023-05-12T08:22:52.173Z,126.3077
2023-05-12T08:23:53.209Z,127.6923
2023-05-12T08:24:54.044Z,120.4615
2023-05-12T08:25:55.600Z,108.3846
2023-05-12T08:26:57.359Z,103.3846
2023-05-12T08:27:58.976Z,116.8462
2023-05-12T08:29:00.599Z,120.2308
2023-05-12T08:30:02.223Z,115.1538
2023-05-12T08:31:05.127Z,114.3846
2023-05-12T08:32:05.421Z,108.4615
2023-05-12T08:33:07.213Z,100.0000
2023-05-12T08:34:10.906Z,117.1538
2023-05-12T08:35:10.391Z,118.7692
2023-05-12T08:36:11.987Z,120.3846
2023-05-12T08:37:13.783Z,114.1538
2023-05-12T08:38:15.662Z,108.7692
2023-05-12T08:39:16.957Z,105.3846
2023-05-12T08:40:18.571Z,103.1538
2023-05-12T08:41:20.257Z,109.6154
2023-05-12T08:42:21.960Z,119.0000
2023-05-12T08:43:23.624Z,115.7692
2023-05-12T08:44:25.172Z,108.3077
2023-05-12T08:45:26.913Z,103.4615
2023-05-12T08:46:28.509Z,103.6923
2023-05-12T08:47:30.145Z,111.1538
2023-05-12T08:48:31.788Z,118.9231
2023-05-12T08:49:33.495Z,116.5385
2023-05-12T08:50:35.128Z,113.9231
2023-05-12T08:51:36.721Z,107.4615
2023-05-12T08:52:38.363Z,100.1538
2023-05-12T08:53:40.057Z,107.4615
2023-05-12T08:54:52.414Z,116.2308
2023-05-12T08:55:48.224Z,118.1538
2023-05-12T08:57:46.627Z,108.3077
2023-05-12T08:58:48.222Z,102.5385
2023-05-12T08:59:49.969Z,110.3077
2023-05-12T09:00:51.604Z,121.6154
2023-05-12T09:01:53.363Z,122.7692
2023-05-12T09:02:55.118Z,132.1538
2023-05-12T09:03:56.598Z,112.9231
2023-05-12T09:04:58.192Z,106.7692
2023-05-12T09:05:59.836Z,107.4615
2023-05-12T09:07:01.459Z,110.3077
2023-05-12T09:08:03.112Z,117.6154
2023-05-12T09:09:04.763Z,126.6154
2023-05-12T09:10:06.419Z,115.0769
2023-05-12T09:11:08.086Z,106.1538
2023-05-12T09:12:10.556Z,106.1538
2023-05-12T09:13:11.343Z,116.2308
2023-05-12T09:14:13.049Z,120.2308
2023-05-12T09:15:14.729Z,125.6154
2023-05-12T09:16:16.334Z,116.3846
2023-05-12T09:17:17.992Z,103.6923
2023-05-12T09:18:19.623Z,102.6154
2023-05-12T09:19:21.186Z,112.3846
2023-05-12T09:20:30.818Z,113.3077
2023-05-12T09:21:24.438Z,129.8333
2023-05-12T09:22:26.084Z,118.6154
2023-05-12T09:23:27.742Z,107.3846
2023-05-12T09:24:29.387Z,106.7692
2023-05-12T09:25:31.078Z,114.4615
2023-05-12T09:26:32.704Z,118.0000
2023-05-12T09:27:34.389Z,131.6154
2023-05-12T09:28:36.020Z,117.5385
2023-05-12T09:29:45.310Z,106.3077
2023-05-12T09:30:39.317Z,109.0000
2023-05-12T09:31:40.959Z,112.2308
2023-05-12T09:32:42.548Z,124.8462
2023-05-12T09:33:44.217Z,130.2308
2023-05-12T09:34:46.595Z,113.6154
2023-05-12T09:35:47.543Z,104.3846
2023-05-12T09:36:49.156Z,102.7692
2023-05-12T09:37:51.846Z,114.3077
2023-05-12T09:38:52.595Z,128.0769
2023-05-12T09:39:54.192Z,128.8462
2023-05-12T09:40:55.873Z,112.6154
2023-05-12T09:41:57.552Z,105.5385
2023-05-12T09:42:59.144Z,109.3077
2023-05-12T09:44:00.894Z,119.0769
2023-05-12T09:45:02.478Z,130.2308
2023-05-12T09:46:04.139Z,124.0769
2023-05-12T09:47:05.800Z,112.0000
2023-05-12T09:48:07.442Z,105.3846
2023-05-12T09:49:09.111Z,106.4615
2023-05-12T09:50:10.741Z,112.9231
2023-05-12T09:51:12.376Z,125.6154
2023-05-12T09:52:14.036Z,124.1538
2023-05-12T09:53:15.709Z,107.3077
2023-05-12T09:54:18.281Z,106.0000
2023-05-12T09:55:19.068Z,104.8462
2023-05-12T09:56:20.645Z,115.7692
2023-05-12T09:57:22.248Z,133.3846
2023-05-12T09:58:23.891Z,115.1538
2023-05-12T09:59:25.576Z,107.9231
2023-05-12T10:00:41.293Z,105.5385
2023-05-12T10:01:28.873Z,118.9231
2023-05-12T10:02:30.725Z,139.1538
2023-05-12T10:03:32.099Z,137.0000
2023-05-12T10:04:33.802Z,117.0769
2023-05-12T10:05:35.400Z,109.0000
2023-05-12T10:06:37.748Z,110.9231
2023-05-12T10:07:38.802Z,126.2308
2023-05-12T10:08:40.509Z,138.3846
2023-05-12T10:09:41.999Z,129.7692
2023-05-12T10:10:43.612Z,112.0769
2023-05-12T10:11:45.348Z,106.6154
2023-05-12T10:12:46.957Z,104.7692
2023-05-12T10:13:48.597Z,125.0769
2023-05-12T10:14:50.207Z,134.0000
2023-05-12T10:15:51.954Z,126.3846
2023-05-12T10:16:54.268Z,109.6923
2023-05-12T10:17:55.264Z,106.5385
2023-05-12T10:18:56.898Z,108.5385
2023-05-12T10:19:58.449Z,121.7692
2023-05-12T10:21:00.240Z,136.5385
2023-05-12T10:22:02.346Z,118.2308
2023-05-12T10:23:03.419Z,111.0000
2023-05-12T10:24:05.053Z,110.4615
2023-05-12T10:25:06.673Z,108.7692
2023-05-12T10:26:08.337Z,122.3846
2023-05-12T10:27:10.752Z,128.1538
2023-05-12T10:28:11.784Z,116.6923
2023-05-12T10:29:13.296Z,109.0000
2023-05-12T10:30:14.944Z,105.3077
2023-05-12T10:31:16.712Z,117.4615
2023-05-12T10:32:19.292Z,128.0769
2023-05-12T10:33:20.358Z,127.4615
2023-05-12T10:34:21.662Z,111.6923
2023-05-12T10:35:23.171Z,103.8462
2023-05-12T10:36:24.844Z,109.7692
2023-05-12T10:37:27.216Z,122.5385
2023-05-12T10:38:28.158Z,130.6154
2023-05-12T10:39:29.718Z,116.9231
2023-05-12T10:40:32.381Z,106.6154
2023-05-12T10:41:33.049Z,106.5385
2023-05-12T10:42:35.275Z,108.6154
2023-05-12T10:43:36.372Z,120.1538
2023-05-12T10:44:38.022Z,128.4615
2023-05-12T10:45:39.663Z,112.6923
2023-05-12T10:46:41.317Z,101.9231
2023-05-12T10:47:43.059Z,98.2308
2023-05-12T10:48:44.597Z,106.6154
2023-05-12T10:49:46.264Z,120.9231
2023-05-12T10:50:47.858Z,139.5385
2023-05-12T10:51:49.524Z,114.3077
2023-05-12T10:52:51.172Z,96.6154
2023-05-12T10:53:54.860Z,96.0769
2023-05-12T10:54:54.509Z,106.6923
2023-05-12T10:55:56.288Z,113.0000
2023-05-12T10:56:57.964Z,126.3846
2023-05-12T10:58:00.154Z,106.7692
2023-05-12T10:59:01.468Z,98.6154
2023-05-12T11:00:03.835Z,97.2308
2023-05-12T11:01:05.055Z,104.3846
2023-05-12T11:02:06.975Z,120.4615
2023-05-12T11:03:10.441Z,117.6923
2023-05-12T11:04:09.410Z,107.7692
2023-05-12T11:05:11.223Z,96.0000
2023-05-12T11:06:12.806Z,98.8462
2023-05-12T11:07:14.707Z,108.0000
2023-05-12T11:08:16.061Z,125.0000
2023-05-12T11:09:18.002Z,119.4615
2023-05-12T11:10:19.706Z,104.2308
2023-05-12T11:11:20.870Z,102.2308
2023-05-12T11:12:22.583Z,98.6923
2023-05-12T11:13:24.192Z,108.0769
2023-05-12T11:14:25.819Z,121.6154
2023-05-12T11:15:27.491Z,118.5385
2023-05-12T11:16:29.155Z,108.6923
2023-05-12T11:17:30.784Z,104.0769
2023-05-12T11:18:32.442Z,104.3077
2023-05-12T11:19:34.074Z,114.8462
2023-05-12T11:20:35.628Z,128.7692
2023-05-12T11:21:37.371Z,112.6154
2023-05-12T11:22:38.979Z,107.5385
2023-05-12T11:23:40.704Z,104.4615
2023-05-12T11:24:42.298Z,106.7692
2023-05-12T11:25:44.451Z,122.7692
2023-05-12T11:26:45.620Z,123.0000
2023-05-12T11:27:47.598Z,109.9231
2023-05-12T11:28:48.913Z,101.0000
2023-05-12T11:29:52.368Z,103.1538
2023-05-12T11:30:54.699Z,108.3077
2023-05-12T11:31:53.876Z,125.0000
2023-05-12T11:32:55.429Z,119.4615
2023-05-12T11:34:10.846Z,118.6154
2023-05-12T11:34:58.801Z,140.4615
2023-05-12T11:36:00.464Z,186.3077
2023-05-12T11:37:02.067Z,211.0769
2023-05-12T11:38:03.742Z,219.5385
2023-05-12T11:39:05.387Z,213.1538
2023-05-12T11:40:07.090Z,206.5385
2023-05-12T11:41:08.620Z,251.0000
2023-05-12T11:42:13.433Z,356.5385
2023-05-12T11:43:12.047Z,383.0000
2023-05-12T11:44:13.663Z,399.3846
2023-05-12T11:45:15.254Z,358.6154
2023-05-12T11:46:17.011Z,326.4615
2023-05-12T11:47:18.588Z,316.3846
2023-05-12T11:48:20.339Z,331.9231
2023-05-12T11:49:22.293Z,337.2308
2023-05-12T11:50:23.568Z,353.3077
2023-05-12T11:51:25.120Z,327.3846
2023-05-12T11:52:26.806Z,325.6154
2023-05-12T11:53:28.499Z,304.6154
2023-05-12T11:54:30.148Z,308.0000
2023-05-12T11:55:31.720Z,321.0000
2023-05-12T11:56:33.429Z,326.2308
2023-05-12T11:57:35.756Z,293.6923
2023-05-12T11:58:36.683Z,289.0769
2023-05-12T11:59:38.797Z,284.6923
2023-05-12T12:00:40.052Z,290.5385
2023-05-12T12:01:41.609Z,313.3077
2023-05-12T12:02:43.471Z,289.9231
2023-05-12T12:03:45.037Z,270.6154
2023-05-12T12:04:46.641Z,257.6154
2023-05-12T12:05:48.194Z,258.7692
2023-05-12T12:06:49.893Z,269.6154
2023-05-12T12:07:51.491Z,289.9231
2023-05-12T12:08:53.130Z,260.3846
2023-05-12T12:09:54.821Z,241.6923
2023-05-12T12:10:57.273Z,239.3077
2023-05-12T12:11:58.104Z,243.3077
2023-05-12T12:13:00.289Z,250.9231
2023-05-12T12:14:01.416Z,256.0769
2023-05-12T12:15:04.018Z,233.0769